createdAt,value
2017-08-02T00:01:12.517Z,19.41
2017-08-02T00:03:40.125Z,19.46
2017-08-02T00:06:07.742Z,19.43
2017-08-02T00:08:35.424Z,19.50
2017-08-02T00:11:03.033Z,19.40
2017-08-02T00:13:30.657Z,19.20
2017-08-02T00:15:58.340Z,19.28
2017-08-02T00:18:25.959Z,19.22
2017-08-02T00:20:53.571Z,19.14
2017-08-02T00:23:21.244Z,19.13
2017-08-02T00:25:48.868Z,18.95
2017-08-02T00:28:16.493Z,19.03
2017-08-02T00:30:44.181Z,18.94
2017-08-02T00:33:11.808Z,18.93
2017-08-02T00:35:39.417Z,18.80
2017-08-02T00:38:07.095Z,18.72
2017-08-02T00:40:34.719Z,18.68
2017-08-02T00:43:02.405Z,18.68
2017-08-02T00:45:30.081Z,18.53
2017-08-02T00:47:57.703Z,18.51
2017-08-02T00:50:25.483Z,18.52
2017-08-02T00:52:53.164Z,18.42
2017-08-02T00:55:20.783Z,18.58
2017-08-02T00:57:48.405Z,18.45
2017-08-02T01:00:16.074Z,18.49
2017-08-02T01:02:43.921Z,18.52
2017-08-02T01:05:11.868Z,18.38
2017-08-02T01:07:39.945Z,18.41
2017-08-02T01:10:07.602Z,18.33
2017-08-02T01:12:35.671Z,18.36
2017-08-02T01:15:03.340Z,18.48
2017-08-02T01:17:30.999Z,18.21
2017-08-02T01:19:58.628Z,18.08
2017-08-02T01:22:26.313Z,18.24
2017-08-02T01:24:54.174Z,18.19
2017-08-02T01:27:22.053Z,18.10
2017-08-02T01:29:50.084Z,18.16
2017-08-02T01:32:17.899Z,18.21
2017-08-02T01:34:45.858Z,18.14
2017-08-02T01:37:13.834Z,18.06
2017-08-02T01:39:41.797Z,17.93
2017-08-02T01:42:09.769Z,17.82
2017-08-02T01:44:37.472Z,17.84
2017-08-02T01:47:05.094Z,17.78
2017-08-02T01:49:32.720Z,17.77
2017-08-02T01:52:00.401Z,17.71
2017-08-02T01:54:28.018Z,17.62
2017-08-02T01:56:56.545Z,17.55
2017-08-02T01:59:24.208Z,17.57
2017-08-02T02:01:52.028Z,17.78
2017-08-02T02:04:19.749Z,17.79
2017-08-02T02:06:47.688Z,17.86
2017-08-02T02:09:15.503Z,17.88
2017-08-02T02:11:43.453Z,18.01
2017-08-02T02:14:11.525Z,18.19
2017-08-02T02:16:39.256Z,18.19
2017-08-02T02:19:07.222Z,18.14
2017-08-02T02:21:35.330Z,17.98
2017-08-02T02:24:03.180Z,17.74
2017-08-02T02:26:30.858Z,17.69
2017-08-02T02:28:58.839Z,17.55
2017-08-02T02:31:26.799Z,17.45
2017-08-02T02:33:54.526Z,17.48
2017-08-02T02:36:22.515Z,17.47
2017-08-02T02:38:50.382Z,17.40
2017-08-02T02:41:18.126Z,17.48
2017-08-02T02:43:46.133Z,17.35
2017-08-02T02:46:14.135Z,17.28
2017-08-02T02:48:42.071Z,17.28
2017-08-02T02:51:10.111Z,17.18
2017-08-02T02:53:38.058Z,17.23
2017-08-02T02:56:06.051Z,17.14
2017-08-02T02:58:34.045Z,17.14
2017-08-02T03:01:01.818Z,17.19
2017-08-02T03:03:29.752Z,17.12
2017-08-02T03:05:57.751Z,17.13
2017-08-02T03:08:25.805Z,17.18
2017-08-02T03:13:26.314Z,17.29
2017-08-02T03:15:54.211Z,17.45
2017-08-02T03:18:22.180Z,17.60
2017-08-02T03:20:50.022Z,17.67
2017-08-02T03:23:17.943Z,17.75
2017-08-02T03:25:45.779Z,17.88
2017-08-02T03:28:13.884Z,17.84
2017-08-02T03:30:41.736Z,17.77
2017-08-02T03:33:09.422Z,17.58
2017-08-02T03:35:37.447Z,17.65
2017-08-02T03:38:05.139Z,17.82
2017-08-02T03:40:32.933Z,17.94
2017-08-02T03:43:00.722Z,18.01
2017-08-02T03:45:28.747Z,18.04
2017-08-02T03:47:56.642Z,18.09
2017-08-02T03:50:24.670Z,18.05
2017-08-02T03:52:52.537Z,18.24
2017-08-02T03:55:20.382Z,19.70
2017-08-02T03:57:48.199Z,21.69
2017-08-02T04:00:16.153Z,22.92
2017-08-02T04:02:43.983Z,23.55
2017-08-02T04:05:11.724Z,24.23
2017-08-02T04:07:39.467Z,24.70
2017-08-02T04:10:07.259Z,25.18
2017-08-02T04:12:35.385Z,25.63
2017-08-02T04:15:03.063Z,25.93
2017-08-02T04:17:30.886Z,26.53
2017-08-02T04:19:58.604Z,26.51
2017-08-02T04:22:26.612Z,26.00
2017-08-02T04:24:54.415Z,26.69
2017-08-02T04:27:22.383Z,27.01
2017-08-02T04:29:50.248Z,27.85
2017-08-02T04:32:17.961Z,28.04
2017-08-02T04:34:45.930Z,27.79
2017-08-02T04:37:13.696Z,29.67
2017-08-02T04:39:41.688Z,30.26
2017-08-02T04:42:09.429Z,30.96
2017-08-02T04:44:37.450Z,31.96
2017-08-02T04:47:05.164Z,32.35
2017-08-02T04:49:33.083Z,32.02
2017-08-02T04:52:00.898Z,32.33
2017-08-02T04:54:28.919Z,33.19
2017-08-02T04:56:56.783Z,33.67
2017-08-02T04:59:24.503Z,34.18
2017-08-02T05:01:52.366Z,33.78
2017-08-02T05:04:20.403Z,33.78
2017-08-02T05:06:48.252Z,33.92
2017-08-02T05:09:16.092Z,34.05
2017-08-02T05:11:43.959Z,32.79
2017-08-02T05:14:11.825Z,34.08
2017-08-02T05:16:39.514Z,34.28
2017-08-02T05:19:07.535Z,35.29
2017-08-02T05:21:35.630Z,35.33
2017-08-02T05:24:03.333Z,35.27
2017-08-02T05:26:31.240Z,34.20
2017-08-02T05:28:59.259Z,34.67
2017-08-02T05:31:27.102Z,36.59
2017-08-02T05:33:55.199Z,36.42
2017-08-02T05:36:23.054Z,36.90
2017-08-02T05:38:50.726Z,35.70
2017-08-02T05:41:18.768Z,34.27
2017-08-02T05:43:46.659Z,33.76
2017-08-02T05:46:14.321Z,35.55
2017-08-02T05:48:42.269Z,35.34
2017-08-02T05:51:10.261Z,37.71
2017-08-02T05:53:37.922Z,36.24
2017-08-02T05:56:06.000Z,37.82
2017-08-02T05:58:34.008Z,38.35
2017-08-02T06:01:01.855Z,37.43
2017-08-02T06:03:29.772Z,36.21
2017-08-02T06:05:57.540Z,37.29
2017-08-02T06:08:25.340Z,37.42
2017-08-02T06:10:53.330Z,37.18
2017-08-02T06:13:21.194Z,38.04
2017-08-02T06:15:48.986Z,37.16
2017-08-02T06:18:16.803Z,36.50
2017-08-02T06:20:44.874Z,37.65
2017-08-02T06:25:46.751Z,38.21
2017-08-02T06:28:14.621Z,38.82
2017-08-02T06:30:42.486Z,39.40
2017-08-02T06:33:10.347Z,41.05
2017-08-02T06:35:38.073Z,41.99
2017-08-02T06:38:06.039Z,39.57
2017-08-02T06:40:33.857Z,39.93
2017-08-02T06:43:01.799Z,39.60
2017-08-02T06:45:29.688Z,40.30
2017-08-02T06:47:57.761Z,40.52
2017-08-02T06:50:25.801Z,40.32
2017-08-02T06:52:53.891Z,40.61
2017-08-02T06:55:21.737Z,40.61
2017-08-02T06:57:49.639Z,40.13
2017-08-02T07:00:17.349Z,40.10
2017-08-02T07:02:45.214Z,39.96
2017-08-02T07:05:13.079Z,39.17
2017-08-02T07:07:40.923Z,39.68
2017-08-02T07:10:08.795Z,38.46
2017-08-02T07:12:36.838Z,39.28
2017-08-02T07:15:04.676Z,40.64
2017-08-02T07:17:32.373Z,40.67
2017-08-02T07:20:00.020Z,40.08
2017-08-02T07:22:27.876Z,40.29
2017-08-02T07:24:55.620Z,39.36
2017-08-02T07:27:23.587Z,39.41
2017-08-02T07:29:51.496Z,40.20
2017-08-02T07:32:19.365Z,40.43
2017-08-02T07:34:47.089Z,40.25
2017-08-02T07:37:14.650Z,40.62
2017-08-02T07:39:42.299Z,39.77
2017-08-02T07:42:10.006Z,40.79
2017-08-02T07:44:37.575Z,41.06
2017-08-02T07:47:05.466Z,41.35
2017-08-02T07:49:33.409Z,42.33
2017-08-02T07:52:01.261Z,42.78
2017-08-02T07:54:29.140Z,42.45
2017-08-02T07:56:56.994Z,43.28
2017-08-02T07:59:24.737Z,43.09
2017-08-02T08:01:52.731Z,41.61
2017-08-02T08:04:20.474Z,40.24
2017-08-02T08:06:48.269Z,40.59
2017-08-02T08:09:16.343Z,40.98
2017-08-02T08:11:44.175Z,40.65
2017-08-02T08:14:12.510Z,40.78
2017-08-02T08:16:42.183Z,41.24
2017-08-02T08:19:11.970Z,40.62
2017-08-02T08:21:41.957Z,39.76
2017-08-02T08:24:11.256Z,37.80
2017-08-02T08:26:41.030Z,39.81
2017-08-02T08:29:11.007Z,39.89
2017-08-02T08:31:40.742Z,41.04
2017-08-02T08:34:09.923Z,40.37
2017-08-02T08:36:37.825Z,39.18
2017-08-02T08:39:05.665Z,40.05
2017-08-02T08:41:33.534Z,40.75
2017-08-02T08:44:01.330Z,41.65
2017-08-02T08:46:29.268Z,41.68
2017-08-02T08:48:57.009Z,41.34
2017-08-02T08:51:25.002Z,41.76
2017-08-02T08:53:52.745Z,41.97
2017-08-02T08:56:20.561Z,41.70
2017-08-02T08:58:48.579Z,41.63
2017-08-02T09:01:16.498Z,41.05
2017-08-02T09:03:44.335Z,41.98
2017-08-02T09:06:12.100Z,41.58
2017-08-02T09:08:40.072Z,42.22
2017-08-02T09:11:07.818Z,42.65
2017-08-02T09:13:35.685Z,40.80
2017-08-02T09:16:03.701Z,41.22
2017-08-02T09:18:31.565Z,41.28
2017-08-02T09:20:59.336Z,41.37
2017-08-02T09:23:27.300Z,41.24
2017-08-02T09:25:55.144Z,41.90
2017-08-02T09:28:23.012Z,40.40
2017-08-02T09:30:50.695Z,41.07
2017-08-02T09:33:18.547Z,40.49
2017-08-02T09:35:46.267Z,40.76
2017-08-02T09:38:14.082Z,40.52
2017-08-02T09:40:41.960Z,41.50
2017-08-02T09:43:09.675Z,40.81
2017-08-02T09:45:37.325Z,40.66
2017-08-02T09:48:05.278Z,41.07
2017-08-02T09:50:33.223Z,39.85
2017-08-02T09:53:01.292Z,40.00
2017-08-02T09:55:30.390Z,40.01
2017-08-02T09:57:58.319Z,39.98
2017-08-02T10:00:26.327Z,40.91
2017-08-02T10:02:54.058Z,41.44
2017-08-02T10:05:22.047Z,41.61
2017-08-02T10:07:50.110Z,41.08
2017-08-02T10:10:17.999Z,41.69
2017-08-02T10:12:45.591Z,39.00
2017-08-02T10:15:13.530Z,40.05
2017-08-02T10:17:41.261Z,40.59
2017-08-02T10:20:09.204Z,39.95
2017-08-02T10:22:36.972Z,39.22
2017-08-02T10:25:04.589Z,39.81
2017-08-02T10:27:32.357Z,39.85
2017-08-02T10:29:59.980Z,40.23
2017-08-02T10:32:27.538Z,40.08
2017-08-02T10:34:55.100Z,39.33
2017-08-02T10:37:22.763Z,39.66
2017-08-02T10:39:50.305Z,39.78
2017-08-02T10:42:18.183Z,40.45
2017-08-02T10:44:45.950Z,38.80
2017-08-02T10:47:13.751Z,37.15
2017-08-02T10:49:41.462Z,39.89
2017-08-02T10:52:09.426Z,40.09
2017-08-02T10:54:37.254Z,38.24
2017-08-02T10:57:05.065Z,39.30
2017-08-02T10:59:33.034Z,40.01
2017-08-02T11:02:00.951Z,41.24
2017-08-02T11:04:28.612Z,41.20
2017-08-02T11:06:56.469Z,40.43
2017-08-02T11:09:24.258Z,39.88
2017-08-02T11:11:52.007Z,40.02
2017-08-02T11:14:20.060Z,40.20
2017-08-02T11:16:47.806Z,40.14
2017-08-02T11:19:15.772Z,39.48
2017-08-02T11:21:43.475Z,39.60
2017-08-02T11:24:11.320Z,38.76
2017-08-02T11:26:39.198Z,39.19
2017-08-02T11:29:07.265Z,39.93
2017-08-02T11:31:35.313Z,40.51
2017-08-02T11:34:03.021Z,40.92
2017-08-02T11:36:30.989Z,39.42
2017-08-02T11:38:59.033Z,40.21
2017-08-02T11:41:26.779Z,40.22
2017-08-02T11:43:54.743Z,40.51
2017-08-02T11:46:22.452Z,41.54
2017-08-02T11:48:50.303Z,41.72
2017-08-02T11:51:17.987Z,41.33
2017-08-02T11:53:45.663Z,41.16
2017-08-02T11:56:13.508Z,41.08
2017-08-02T11:58:41.184Z,40.78
2017-08-02T12:01:09.244Z,41.26
2017-08-02T12:03:37.310Z,39.95
2017-08-02T12:06:05.057Z,40.17
2017-08-02T12:08:32.905Z,40.28
2017-08-02T12:11:00.889Z,41.29
2017-08-02T12:13:28.656Z,40.59
2017-08-02T12:15:56.720Z,40.08
2017-08-02T12:18:24.667Z,41.07
2017-08-02T12:20:52.588Z,40.48
2017-08-02T12:23:20.254Z,39.99
2017-08-02T12:25:48.295Z,39.93
2017-08-02T12:28:15.986Z,40.78
2017-08-02T12:30:43.686Z,39.24
2017-08-02T12:33:11.693Z,38.19
2017-08-02T12:35:39.381Z,40.22
2017-08-02T12:38:07.104Z,40.37
2017-08-02T12:40:35.113Z,40.07
2017-08-02T12:43:02.767Z,39.53
2017-08-02T12:45:30.442Z,38.34
2017-08-02T12:47:58.496Z,36.52
2017-08-02T12:50:26.268Z,37.21
2017-08-02T12:52:54.039Z,37.08
2017-08-02T12:55:21.899Z,36.02
2017-08-02T12:57:49.565Z,36.37
2017-08-02T13:00:17.286Z,36.35
2017-08-02T13:02:45.205Z,36.58
2017-08-02T13:05:13.089Z,36.95
2017-08-02T13:07:41.035Z,37.29
2017-08-02T13:10:08.903Z,37.47
2017-08-02T13:12:36.746Z,37.13
2017-08-02T13:15:04.540Z,36.25
2017-08-02T13:17:32.407Z,36.52
2017-08-02T13:20:00.061Z,36.20
2017-08-02T13:22:27.968Z,36.16
2017-08-02T13:24:55.691Z,36.19
2017-08-02T13:27:23.354Z,36.48
2017-08-02T13:29:51.031Z,36.05
2017-08-02T13:32:18.892Z,36.10
2017-08-02T13:34:46.551Z,36.53
2017-08-02T13:37:14.215Z,36.59
2017-08-02T13:39:42.281Z,36.47
2017-08-02T13:42:10.351Z,36.20
2017-08-02T13:44:38.218Z,36.27
2017-08-02T13:47:06.264Z,36.30
2017-08-02T13:49:34.010Z,36.06
2017-08-02T13:52:02.022Z,36.06
2017-08-02T13:54:30.044Z,35.72
2017-08-02T13:56:57.862Z,35.48
2017-08-02T13:59:25.673Z,35.47
2017-08-02T14:01:53.903Z,35.43
2017-08-02T14:04:21.572Z,35.65
2017-08-02T14:06:49.482Z,35.94
2017-08-02T14:09:17.132Z,35.54
2017-08-02T14:11:44.959Z,35.34
2017-08-02T14:14:13.037Z,35.24
2017-08-02T14:16:40.696Z,35.21
2017-08-02T14:19:08.541Z,35.16
2017-08-02T14:21:36.607Z,34.71
2017-08-02T14:24:04.550Z,34.76
2017-08-02T14:26:32.599Z,34.61
2017-08-02T14:29:00.607Z,34.65
2017-08-02T14:31:28.295Z,34.63
2017-08-02T14:33:56.142Z,34.62
2017-08-02T14:36:24.451Z,34.40
2017-08-02T14:38:52.300Z,34.19
2017-08-02T14:41:19.997Z,34.41
2017-08-02T14:43:47.916Z,34.48
2017-08-02T14:46:15.582Z,34.71
2017-08-02T14:48:43.301Z,34.88
2017-08-02T14:51:11.454Z,34.68
2017-08-02T14:53:39.313Z,34.44
2017-08-02T14:56:07.326Z,34.27
2017-08-02T14:58:35.043Z,34.05
2017-08-02T15:01:02.695Z,33.83
2017-08-02T15:03:30.366Z,33.95
2017-08-02T15:05:58.370Z,34.10
2017-08-02T15:08:26.099Z,34.17
2017-08-02T15:10:53.764Z,34.25
2017-08-02T15:13:21.624Z,34.27
2017-08-02T15:15:49.290Z,34.20
2017-08-02T15:18:17.006Z,34.00
2017-08-02T15:20:45.033Z,34.05
2017-08-02T15:23:12.740Z,33.95
2017-08-02T15:25:40.704Z,33.95
2017-08-02T15:28:08.415Z,33.83
2017-08-02T15:30:36.125Z,33.87
2017-08-02T15:33:04.157Z,33.66
2017-08-02T15:35:32.023Z,33.56
2017-08-02T15:37:59.867Z,33.55
2017-08-02T15:40:27.460Z,33.55
2017-08-02T15:42:55.419Z,33.56
2017-08-02T15:45:23.271Z,33.57
2017-08-02T15:47:51.138Z,33.53
2017-08-02T15:50:18.881Z,33.56
2017-08-02T15:52:46.751Z,33.55
2017-08-02T15:55:14.538Z,33.41
2017-08-02T15:57:42.408Z,33.25
2017-08-02T16:00:10.074Z,33.11
2017-08-02T16:02:37.918Z,33.02
2017-08-02T16:05:05.598Z,32.98
2017-08-02T16:07:33.268Z,32.84
2017-08-02T16:10:00.930Z,32.81
2017-08-02T16:12:28.864Z,32.85
2017-08-02T16:14:56.728Z,32.81
2017-08-02T16:17:24.730Z,32.79
2017-08-02T16:19:52.396Z,32.74
2017-08-02T16:22:20.108Z,32.71
2017-08-02T16:24:47.919Z,32.68
2017-08-02T16:27:15.868Z,32.64
2017-08-02T16:29:43.680Z,32.59
2017-08-02T16:32:11.629Z,32.59
2017-08-02T16:34:39.417Z,32.53
2017-08-02T16:37:07.262Z,32.46
2017-08-02T16:39:35.102Z,32.33
2017-08-02T16:42:02.783Z,32.19
2017-08-02T16:44:30.513Z,32.07
2017-08-02T16:46:58.093Z,31.90
2017-08-02T16:49:25.950Z,31.79
2017-08-02T16:51:53.641Z,31.63
2017-08-02T16:54:21.298Z,31.50
2017-08-02T16:56:49.369Z,31.40
2017-08-02T16:59:17.215Z,31.18
2017-08-02T17:01:45.083Z,31.02
2017-08-02T17:04:12.973Z,30.87
2017-08-02T17:06:40.692Z,30.73
2017-08-02T17:09:08.494Z,30.49
2017-08-02T17:11:36.230Z,30.30
2017-08-02T17:14:04.233Z,30.01
2017-08-02T17:16:31.968Z,29.83
2017-08-02T17:18:59.827Z,29.71
2017-08-02T17:21:27.428Z,29.52
2017-08-02T17:23:55.304Z,29.33
2017-08-02T17:26:23.209Z,29.09
2017-08-02T17:28:51.235Z,28.95
2017-08-02T17:31:18.945Z,28.82
2017-08-02T17:33:46.761Z,28.73
2017-08-02T17:36:14.427Z,28.65
2017-08-02T17:38:42.141Z,28.57
2017-08-02T17:41:09.956Z,28.41
2017-08-02T17:43:37.799Z,28.22
2017-08-02T17:46:05.670Z,28.11
2017-08-02T17:48:33.532Z,27.95
2017-08-02T17:51:01.213Z,27.85
2017-08-02T17:53:28.949Z,27.76
2017-08-02T17:55:56.744Z,27.66
2017-08-02T17:58:24.405Z,27.56
2017-08-02T18:00:52.146Z,27.43
2017-08-02T18:03:19.927Z,27.36
2017-08-02T18:05:47.803Z,27.23
2017-08-02T18:08:15.529Z,27.12
2017-08-02T18:10:43.396Z,26.97
2017-08-02T18:13:11.402Z,26.85
2017-08-02T18:15:39.067Z,26.80
2017-08-02T18:18:06.915Z,26.69
2017-08-02T18:20:34.596Z,26.64
2017-08-02T18:23:02.304Z,26.48
2017-08-02T18:25:30.130Z,26.42
2017-08-02T18:27:57.725Z,26.32
2017-08-02T18:30:25.655Z,26.23
2017-08-02T18:32:53.421Z,26.12
2017-08-02T18:35:21.042Z,26.03
2017-08-02T18:37:48.708Z,25.95
2017-08-02T18:40:16.376Z,25.89
2017-08-02T18:42:44.019Z,25.89
2017-08-02T18:45:11.638Z,25.86
2017-08-02T18:47:39.317Z,25.83
2017-08-02T18:50:06.925Z,25.79
2017-08-02T18:52:34.540Z,25.68
2017-08-02T18:55:02.224Z,25.61
2017-08-02T18:57:29.819Z,25.55
2017-08-02T18:59:57.421Z,25.44
2017-08-02T19:02:25.244Z,25.30
2017-08-02T19:04:53.119Z,25.18
2017-08-02T19:07:20.790Z,25.10
2017-08-02T19:09:48.434Z,25.02
2017-08-02T19:12:16.315Z,24.93
2017-08-02T19:14:44.024Z,24.75
2017-08-02T19:17:11.844Z,24.64
2017-08-02T19:19:39.444Z,24.63
2017-08-02T19:22:07.176Z,24.56
2017-08-02T19:24:35.204Z,24.46
2017-08-02T19:27:02.904Z,24.43
2017-08-02T19:29:31.368Z,24.28
2017-08-02T19:32:02.233Z,24.17
2017-08-02T19:34:32.935Z,24.05
2017-08-02T19:37:02.759Z,24.03
2017-08-02T19:39:30.638Z,23.95
2017-08-02T19:41:58.300Z,23.95
2017-08-02T19:44:25.963Z,23.90
2017-08-02T19:46:53.684Z,23.89
2017-08-02T19:49:21.652Z,23.81
2017-08-02T19:51:49.312Z,23.74
2017-08-02T19:54:16.913Z,23.75
2017-08-02T19:56:44.671Z,23.73
2017-08-02T19:59:12.329Z,23.62
2017-08-02T20:01:40.184Z,23.52
2017-08-02T20:04:07.864Z,23.44
2017-08-02T20:06:35.735Z,23.33
2017-08-02T20:09:03.399Z,23.33
2017-08-02T20:11:31.065Z,23.33
2017-08-02T20:13:58.744Z,23.31
2017-08-02T20:16:26.586Z,23.29
2017-08-02T20:18:54.313Z,23.38
2017-08-02T20:21:22.054Z,23.44
2017-08-02T20:23:49.778Z,23.46
2017-08-02T20:26:17.582Z,23.34
2017-08-02T20:28:45.475Z,23.32
2017-08-02T20:31:13.183Z,23.38
2017-08-02T20:33:40.847Z,23.31
2017-08-02T20:36:08.508Z,23.23
2017-08-02T20:38:36.164Z,23.15
2017-08-02T20:41:03.942Z,23.12
2017-08-02T20:43:31.857Z,22.99
2017-08-02T20:45:59.441Z,22.92
2017-08-02T20:48:27.288Z,22.85
2017-08-02T20:50:55.254Z,22.79
2017-08-02T20:53:22.983Z,22.73
2017-08-02T20:55:51.015Z,22.65
2017-08-02T20:58:18.898Z,22.64
2017-08-02T21:00:46.605Z,22.65
2017-08-02T21:03:14.470Z,22.62
2017-08-02T21:05:42.308Z,22.54
2017-08-02T21:08:10.148Z,22.40
2017-08-02T21:10:38.027Z,22.39
2017-08-02T21:13:06.085Z,22.32
2017-08-02T21:15:33.761Z,22.18
2017-08-02T21:18:01.745Z,22.23
2017-08-02T21:20:29.501Z,22.23
2017-08-02T21:22:57.559Z,22.21
2017-08-02T21:25:25.225Z,22.33
2017-08-02T21:27:53.141Z,22.23
2017-08-02T21:30:21.103Z,22.19
2017-08-02T21:32:49.029Z,22.11
2017-08-02T21:35:17.040Z,22.08
2017-08-02T21:37:44.882Z,22.06
2017-08-02T21:40:12.634Z,21.96
2017-08-02T21:42:40.312Z,21.99
2017-08-02T21:45:08.012Z,21.97
2017-08-02T21:47:35.828Z,21.97
2017-08-02T21:50:03.889Z,21.95
2017-08-02T21:52:31.762Z,21.96
2017-08-02T21:54:59.352Z,21.92
2017-08-02T21:57:27.050Z,21.86
2017-08-02T21:59:54.930Z,22.01
2017-08-02T22:02:22.611Z,21.95
2017-08-02T22:04:50.644Z,21.91
2017-08-02T22:07:18.553Z,21.93
2017-08-02T22:09:46.281Z,21.89
2017-08-02T22:12:14.049Z,21.82
2017-08-02T22:14:41.748Z,21.78
2017-08-02T22:17:09.610Z,21.69
2017-08-02T22:19:37.525Z,21.68
2017-08-02T22:22:05.341Z,21.63
2017-08-02T22:24:33.059Z,21.60
2017-08-02T22:27:01.048Z,21.48
2017-08-02T22:29:28.740Z,21.43
2017-08-02T22:31:56.366Z,21.42
2017-08-02T22:34:24.473Z,21.49
2017-08-02T22:36:52.342Z,21.60
2017-08-02T22:39:20.185Z,21.63
2017-08-02T22:41:47.931Z,21.55
2017-08-02T22:44:15.795Z,21.48
2017-08-02T22:46:43.606Z,21.40
2017-08-02T22:49:11.467Z,21.45
2017-08-02T22:51:39.127Z,21.54
2017-08-02T22:54:06.840Z,21.53
2017-08-02T22:56:34.865Z,21.43
2017-08-02T22:59:02.529Z,21.31
2017-08-02T23:01:30.364Z,21.27
2017-08-02T23:03:58.261Z,21.16
2017-08-02T23:06:25.976Z,21.11
2017-08-02T23:08:53.983Z,21.17
2017-08-02T23:11:21.932Z,21.13
2017-08-02T23:13:49.875Z,21.11
2017-08-02T23:16:17.765Z,21.07
2017-08-02T23:18:45.439Z,21.07
2017-08-02T23:21:13.106Z,21.07
2017-08-02T23:23:40.917Z,20.96
2017-08-02T23:26:08.591Z,21.07
2017-08-02T23:28:36.500Z,20.99
2017-08-02T23:31:04.243Z,20.90
2017-08-02T23:33:32.048Z,20.83
2017-08-02T23:35:59.900Z,20.86
2017-08-02T23:38:27.579Z,20.87
2017-08-02T23:40:55.555Z,20.93
2017-08-02T23:43:23.454Z,20.89
2017-08-02T23:45:51.384Z,20.78
2017-08-02T23:48:19.457Z,20.69
2017-08-02T23:50:47.066Z,20.79
2017-08-02T23:53:14.779Z,20.80
2017-08-02T23:55:42.851Z,20.75
2017-08-02T23:58:10.582Z,20.75
